createdAt,value
2019-05-18T00:00:44.767Z,9.06
2019-05-18T00:05:51.120Z,8.85
2019-05-18T00:08:39.505Z,8.94
2019-05-18T00:11:09.747Z,8.99
2019-05-18T00:13:40.139Z,9.03
2019-05-18T00:16:09.384Z,9.07
2019-05-18T00:18:37.749Z,8.96
2019-05-18T00:23:48.035Z,8.85
2019-05-18T00:28:52.635Z,8.89
2019-05-18T00:33:58.118Z,8.88
2019-05-18T00:36:29.957Z,8.90
2019-05-18T00:38:58.313Z,8.86
2019-05-18T00:41:45.436Z,8.93
2019-05-18T00:44:11.367Z,8.95
2019-05-18T00:46:40.355Z,8.88
2019-05-18T00:49:08.711Z,8.79
2019-05-18T00:54:29.663Z,8.98
2019-05-18T00:56:58.012Z,9.01
2019-05-18T00:59:26.366Z,8.92
2019-05-18T01:01:55.607Z,8.87
2019-05-18T01:04:28.822Z,8.90
2019-05-18T01:06:58.137Z,8.92
2019-05-18T01:12:57.532Z,8.75
2019-05-18T01:15:27.794Z,8.71
2019-05-18T01:17:59.959Z,8.67
2019-05-18T01:20:43.535Z,8.63
2019-05-18T01:23:12.775Z,8.50
2019-05-18T01:25:49.658Z,8.48
2019-05-18T01:28:18.006Z,8.36
2019-05-18T01:30:46.404Z,8.35
2019-05-18T01:33:15.001Z,8.34
2019-05-18T01:35:44.221Z,8.29
2019-05-18T01:38:12.564Z,8.29
2019-05-18T01:41:00.993Z,8.27
2019-05-18T01:43:29.321Z,8.13
2019-05-18T01:46:04.414Z,8.11
2019-05-18T01:48:37.529Z,8.07
2019-05-18T01:51:06.802Z,8.02
2019-05-18T01:56:12.383Z,8.00
2019-05-18T01:58:40.758Z,7.94
2019-05-18T02:01:11.013Z,7.80
2019-05-18T02:03:39.377Z,7.79
2019-05-18T02:06:07.741Z,7.76
2019-05-18T02:08:36.097Z,7.67
2019-05-18T02:11:04.464Z,7.63
2019-05-18T02:16:07.954Z,7.64
2019-05-18T02:18:36.317Z,7.64
2019-05-18T02:21:04.695Z,7.58
2019-05-18T02:23:33.053Z,7.48
2019-05-18T02:26:01.407Z,7.38
2019-05-18T02:30:49.929Z,7.51
2019-05-18T02:33:18.280Z,7.43
2019-05-18T02:35:46.644Z,7.32
2019-05-18T02:38:18.315Z,7.39
2019-05-18T02:40:46.703Z,7.39
2019-05-18T02:43:15.055Z,7.28
2019-05-18T02:48:19.581Z,7.26
2019-05-18T02:50:48.292Z,7.18
2019-05-18T02:53:16.649Z,7.22
2019-05-18T02:56:05.325Z,7.13
2019-05-18T02:58:57.144Z,6.95
2019-05-18T03:01:28.944Z,6.91
2019-05-18T03:06:34.497Z,7.01
2019-05-18T03:09:06.367Z,7.07
2019-05-18T03:11:35.624Z,6.96
2019-05-18T03:14:06.926Z,6.86
2019-05-18T03:16:39.648Z,6.95
2019-05-18T03:19:09.253Z,7.04
2019-05-18T03:21:37.275Z,7.04
2019-05-18T03:24:10.351Z,7.09
2019-05-18T03:26:38.701Z,7.02
2019-05-18T03:29:30.310Z,6.91
2019-05-18T03:31:58.671Z,6.98
2019-05-18T03:37:03.274Z,7.03
2019-05-18T03:39:31.601Z,7.00
2019-05-18T03:41:59.970Z,7.00
2019-05-18T03:44:28.351Z,7.05
2019-05-18T03:46:59.928Z,7.06
2019-05-18T03:52:02.462Z,7.17
2019-05-18T03:59:40.240Z,7.33
2019-05-18T04:02:08.618Z,7.32
2019-05-18T04:04:36.961Z,7.36
2019-05-18T04:07:06.046Z,7.37
2019-05-18T04:09:34.382Z,7.38
2019-05-18T04:12:02.751Z,7.47
2019-05-18T04:14:31.098Z,7.47
2019-05-18T04:16:59.490Z,7.54
2019-05-18T04:19:44.844Z,7.56
2019-05-18T04:21:56.177Z,7.63
2019-05-18T04:24:24.545Z,7.74
2019-05-18T04:26:52.891Z,7.86
2019-05-18T04:29:22.180Z,7.95
2019-05-18T04:31:50.530Z,8.01
2019-05-18T04:34:18.884Z,8.05
2019-05-18T04:36:48.213Z,8.03
2019-05-18T04:39:16.549Z,8.18
2019-05-18T04:41:48.629Z,8.32
2019-05-18T04:44:20.464Z,8.52
2019-05-18T04:46:48.845Z,8.70
2019-05-18T04:49:18.168Z,8.86
2019-05-18T04:51:46.527Z,9.06
2019-05-18T04:54:14.906Z,9.22
2019-05-18T04:56:44.356Z,9.37
2019-05-18T04:59:12.698Z,9.48
2019-05-18T05:01:42.002Z,9.53
2019-05-18T05:04:10.341Z,9.62
2019-05-18T05:06:39.612Z,9.58
2019-05-18T05:09:08.533Z,9.63
2019-05-18T05:11:41.873Z,9.69
2019-05-18T05:14:10.227Z,9.74
2019-05-18T05:16:38.567Z,9.84
2019-05-18T05:19:08.796Z,9.95
2019-05-18T05:21:35.550Z,10.09
2019-05-18T05:24:03.946Z,10.22
2019-05-18T05:26:32.380Z,10.35
2019-05-18T05:29:00.660Z,10.52
2019-05-18T05:31:29.001Z,10.64
2019-05-18T05:33:57.380Z,10.91
2019-05-18T05:36:25.731Z,11.15
2019-05-18T05:38:54.100Z,11.37
2019-05-18T05:41:22.463Z,11.73
2019-05-18T05:43:50.825Z,11.82
2019-05-18T05:46:19.163Z,11.89
2019-05-18T05:48:47.519Z,12.16
2019-05-18T05:51:15.885Z,12.45
2019-05-18T05:53:45.152Z,12.72
2019-05-18T05:56:13.610Z,13.12
2019-05-18T05:58:41.982Z,13.05
2019-05-18T06:01:10.325Z,13.12
2019-05-18T06:03:38.674Z,13.16
2019-05-18T06:08:41.218Z,12.81
2019-05-18T06:13:43.836Z,12.75
2019-05-18T06:16:12.167Z,12.69
2019-05-18T06:18:40.528Z,12.74
2019-05-18T06:21:08.889Z,12.69
2019-05-18T06:23:37.315Z,12.74
2019-05-18T06:26:05.590Z,12.76
2019-05-18T06:28:33.939Z,12.89
2019-05-18T06:31:02.285Z,13.29
2019-05-18T06:33:31.538Z,13.36
2019-05-18T06:35:59.879Z,13.52
2019-05-18T06:38:28.256Z,13.42
2019-05-18T06:41:00.222Z,13.56
2019-05-18T06:43:28.697Z,13.61
2019-05-18T06:46:00.285Z,13.53
2019-05-18T06:48:28.635Z,13.54
2019-05-18T06:51:06.698Z,13.74
2019-05-18T06:53:25.329Z,13.64
2019-05-18T06:55:53.681Z,13.68
2019-05-18T06:58:22.047Z,13.66
2019-05-18T07:03:24.684Z,13.84
2019-05-18T07:05:53.022Z,14.00
2019-05-18T07:08:21.370Z,14.08
2019-05-18T07:10:49.713Z,13.98
2019-05-18T07:13:21.469Z,13.89
2019-05-18T07:15:49.794Z,13.93
2019-05-18T07:18:19.073Z,13.88
2019-05-18T07:20:53.933Z,14.10
2019-05-18T07:23:22.381Z,14.26
2019-05-18T07:25:50.709Z,14.49
2019-05-18T07:28:19.061Z,14.61
2019-05-18T07:30:47.400Z,14.90
2019-05-18T07:33:15.761Z,15.02
2019-05-18T07:35:44.120Z,14.97
2019-05-18T07:38:15.472Z,15.11
2019-05-18T07:40:43.838Z,15.25
2019-05-18T07:43:15.178Z,15.39
2019-05-18T07:45:43.580Z,15.53
2019-05-18T07:50:48.152Z,15.72
2019-05-18T07:53:16.522Z,15.68
2019-05-18T07:55:44.872Z,15.78
2019-05-18T07:58:16.232Z,15.93
2019-05-18T08:00:44.630Z,16.12
2019-05-18T08:08:24.842Z,16.59
2019-05-18T08:10:53.191Z,16.78
2019-05-18T08:13:21.538Z,17.33
2019-05-18T08:15:49.896Z,17.38
2019-05-18T08:18:18.246Z,17.16
2019-05-18T08:20:46.588Z,17.71
2019-05-18T08:23:14.944Z,17.86
2019-05-18T08:25:43.302Z,18.28
2019-05-18T08:30:45.984Z,18.56
2019-05-18T08:33:14.507Z,18.48
2019-05-18T08:35:42.685Z,18.69
2019-05-18T08:38:11.036Z,18.46
2019-05-18T08:40:39.397Z,18.53
2019-05-18T08:43:07.758Z,18.62
2019-05-18T08:45:36.118Z,18.79
2019-05-18T08:48:04.467Z,18.63
2019-05-18T08:50:32.825Z,18.46
2019-05-18T08:53:03.077Z,18.19
2019-05-18T08:55:31.421Z,19.45
2019-05-18T08:57:59.768Z,20.18
2019-05-18T09:00:28.117Z,20.74
2019-05-18T09:02:56.463Z,20.65
2019-05-18T09:05:24.827Z,20.46
2019-05-18T09:07:53.173Z,20.05
2019-05-18T09:10:21.535Z,20.05
2019-05-18T09:15:26.170Z,21.17
2019-05-18T09:17:54.516Z,21.65
2019-05-18T09:20:22.875Z,21.98
2019-05-18T09:22:51.226Z,22.58
2019-05-18T09:25:19.586Z,23.38
2019-05-18T09:27:47.928Z,23.90
2019-05-18T09:30:16.297Z,25.60
2019-05-18T09:35:19.009Z,26.04
2019-05-18T09:37:47.346Z,26.01
2019-05-18T09:40:17.269Z,25.72
2019-05-18T09:42:45.619Z,28.49
2019-05-18T09:45:15.870Z,28.69
2019-05-18T09:47:44.233Z,29.43
2019-05-18T09:50:12.582Z,29.34
2019-05-18T09:52:45.713Z,29.62
2019-05-18T09:55:09.321Z,28.94
2019-05-18T10:00:14.080Z,28.06
2019-05-18T10:02:42.427Z,29.68
2019-05-18T10:05:10.788Z,29.63
2019-05-18T10:07:40.717Z,29.62
2019-05-18T10:12:47.330Z,31.53
2019-05-18T10:15:15.691Z,31.87
2019-05-18T10:17:44.061Z,30.64
2019-05-18T10:20:12.393Z,31.58
2019-05-18T10:22:53.502Z,31.96
2019-05-18T10:25:09.211Z,32.36
2019-05-18T10:30:11.936Z,29.37
2019-05-18T10:32:40.392Z,31.77
2019-05-18T10:35:08.707Z,32.58
2019-05-18T10:37:37.065Z,32.96
2019-05-18T10:42:41.763Z,32.82
2019-05-18T10:45:10.103Z,33.64
2019-05-18T10:47:38.460Z,34.15
2019-05-18T10:50:07.716Z,33.55
2019-05-18T10:52:36.202Z,32.20
2019-05-18T10:55:05.148Z,31.93
2019-05-18T10:57:33.521Z,31.36
2019-05-18T11:00:01.950Z,32.21
2019-05-18T11:02:30.234Z,31.99
2019-05-18T11:04:58.593Z,30.16
2019-05-18T11:07:29.083Z,29.15
2019-05-18T11:12:35.592Z,32.04
2019-05-18T11:15:04.181Z,32.47
2019-05-18T11:17:32.527Z,28.04
2019-05-18T11:20:01.949Z,25.99
2019-05-18T11:22:30.273Z,27.06
2019-05-18T11:24:58.761Z,24.69
2019-05-18T11:27:28.572Z,25.64
2019-05-18T11:29:56.913Z,25.06
2019-05-18T11:32:25.912Z,24.74
2019-05-18T11:34:55.075Z,25.28
2019-05-18T11:37:23.419Z,25.27
2019-05-18T11:42:26.144Z,25.16
2019-05-18T11:44:54.479Z,25.27
2019-05-18T11:47:23.249Z,26.09
2019-05-18T11:49:51.651Z,24.60
2019-05-18T11:52:19.985Z,23.98
2019-05-18T11:54:48.327Z,24.44
2019-05-18T11:57:16.685Z,24.31
2019-05-18T11:59:45.034Z,24.50
2019-05-18T12:02:14.083Z,23.58
2019-05-18T12:04:42.424Z,24.14
2019-05-18T12:07:10.783Z,23.08
2019-05-18T12:09:39.153Z,22.60
2019-05-18T12:12:07.533Z,24.26
2019-05-18T12:14:35.948Z,24.63
2019-05-18T12:19:46.523Z,24.01
2019-05-18T12:22:14.885Z,24.10
2019-05-18T12:24:43.233Z,24.61
2019-05-18T12:27:11.593Z,24.35
2019-05-18T12:29:43.581Z,25.31
2019-05-18T12:32:11.921Z,26.03
2019-05-18T12:37:21.382Z,27.11
2019-05-18T12:39:49.732Z,27.21
2019-05-18T12:42:18.090Z,27.33
2019-05-18T12:44:46.438Z,27.57
2019-05-18T12:47:14.797Z,28.36
2019-05-18T12:49:43.141Z,29.91
2019-05-18T12:52:11.505Z,30.59
2019-05-18T12:54:46.527Z,27.88
2019-05-18T12:57:08.212Z,27.69
2019-05-18T12:59:36.587Z,29.08
2019-05-18T13:02:04.928Z,29.04
2019-05-18T13:04:33.271Z,27.83
2019-05-18T13:07:01.623Z,28.55
2019-05-18T13:09:29.972Z,29.34
2019-05-18T13:11:59.353Z,28.25
2019-05-18T13:14:27.696Z,27.79
2019-05-18T13:16:56.075Z,29.03
2019-05-18T13:19:24.468Z,28.92
2019-05-18T13:21:52.788Z,29.63
2019-05-18T13:26:57.510Z,28.97
2019-05-18T13:29:25.852Z,27.75
2019-05-18T13:31:54.201Z,27.43
2019-05-18T13:34:22.544Z,27.20
2019-05-18T13:36:51.042Z,26.64
2019-05-18T13:41:53.709Z,27.26
2019-05-18T13:44:22.071Z,27.12
2019-05-18T13:46:50.420Z,27.23
2019-05-18T13:49:18.756Z,26.49
2019-05-18T13:51:47.179Z,28.47
2019-05-18T13:54:15.517Z,28.07
2019-05-18T13:56:43.870Z,28.34
2019-05-18T13:59:12.216Z,28.49
2019-05-18T14:01:40.575Z,28.65
2019-05-18T14:04:08.916Z,27.18
2019-05-18T14:06:37.274Z,27.95
2019-05-18T14:09:06.068Z,26.59
2019-05-18T14:11:34.409Z,28.12
2019-05-18T14:14:02.758Z,26.73
2019-05-18T14:16:31.113Z,27.75
2019-05-18T14:18:59.448Z,29.17
2019-05-18T14:24:02.058Z,30.29
2019-05-18T14:26:30.404Z,27.51
2019-05-18T14:28:58.748Z,25.33
2019-05-18T14:31:28.982Z,27.05
2019-05-18T14:33:57.338Z,26.71
2019-05-18T14:36:26.795Z,23.45
2019-05-18T14:38:56.883Z,23.87
2019-05-18T14:41:25.413Z,24.65
2019-05-18T14:43:53.746Z,25.64
2019-05-18T14:46:22.129Z,28.72
2019-05-18T14:48:50.470Z,29.88
2019-05-18T14:53:53.201Z,30.26
2019-05-18T14:56:21.554Z,28.67
2019-05-18T14:58:49.916Z,29.13
2019-05-18T15:01:18.267Z,29.53
2019-05-18T15:03:46.628Z,28.98
2019-05-18T15:06:14.976Z,28.50
2019-05-18T15:08:43.323Z,28.63
2019-05-18T15:11:11.660Z,29.66
2019-05-18T15:13:40.005Z,32.64
2019-05-18T15:16:08.362Z,32.53
2019-05-18T15:18:36.744Z,34.11
2019-05-18T15:21:05.093Z,34.36
2019-05-18T15:23:33.461Z,34.54
2019-05-18T15:26:01.815Z,34.44
2019-05-18T15:28:30.170Z,30.67
2019-05-18T15:30:58.528Z,32.80
2019-05-18T15:33:26.879Z,34.53
2019-05-18T15:35:55.230Z,34.99
2019-05-18T15:38:23.580Z,36.84
2019-05-18T15:40:51.938Z,36.91
2019-05-18T15:43:20.312Z,34.66
2019-05-18T15:48:25.094Z,35.57
2019-05-18T15:50:54.780Z,36.73
2019-05-18T15:53:23.214Z,35.64
2019-05-18T15:56:04.820Z,36.90
2019-05-18T15:58:19.940Z,33.46
2019-05-18T16:00:48.292Z,32.95
2019-05-18T16:03:16.629Z,33.25
2019-05-18T16:05:44.990Z,35.98
2019-05-18T16:10:48.669Z,35.34
2019-05-18T16:13:17.024Z,27.69
2019-05-18T16:15:45.389Z,28.16
2019-05-18T16:18:13.779Z,32.53
2019-05-18T16:20:42.111Z,30.63
2019-05-18T16:23:10.466Z,29.49
2019-05-18T16:25:38.836Z,27.88
2019-05-18T16:28:07.183Z,26.24
2019-05-18T16:33:09.838Z,26.62
2019-05-18T16:35:38.189Z,26.17
2019-05-18T16:38:07.430Z,25.04
2019-05-18T16:40:35.772Z,24.42
2019-05-18T16:43:05.030Z,24.55
2019-05-18T16:45:33.448Z,23.86
2019-05-18T16:48:01.804Z,23.33
2019-05-18T16:50:30.146Z,22.84
2019-05-18T16:52:58.522Z,22.25
2019-05-18T16:55:27.796Z,22.39
2019-05-18T16:57:56.160Z,21.97
2019-05-18T17:00:30.313Z,22.44
2019-05-18T17:02:58.648Z,22.28
2019-05-18T17:05:26.997Z,22.04
2019-05-18T17:07:55.353Z,22.18
2019-05-18T17:10:23.701Z,21.52
2019-05-18T17:12:52.068Z,21.08
2019-05-18T17:15:20.416Z,21.09
2019-05-18T17:17:48.761Z,21.32
2019-05-18T17:22:53.379Z,21.08
2019-05-18T17:25:21.713Z,21.09
2019-05-18T17:27:50.037Z,20.67
2019-05-18T17:30:18.380Z,20.79
2019-05-18T17:32:47.632Z,20.68
2019-05-18T17:35:15.973Z,20.58
2019-05-18T17:37:44.362Z,20.25
2019-05-18T17:40:12.714Z,20.34
2019-05-18T17:42:41.106Z,20.17
2019-05-18T17:45:09.426Z,20.12
2019-05-18T17:47:37.807Z,20.14
2019-05-18T17:52:40.401Z,20.18
2019-05-18T17:55:08.748Z,19.99
2019-05-18T17:57:37.095Z,19.86
2019-05-18T18:00:06.265Z,19.60
2019-05-18T18:02:34.598Z,19.47
2019-05-18T18:05:02.951Z,19.48
2019-05-18T18:07:31.635Z,19.53
2019-05-18T18:09:59.974Z,19.26
2019-05-18T18:12:28.308Z,19.15
2019-05-18T18:14:57.559Z,18.89
2019-05-18T18:17:26.568Z,18.71
2019-05-18T18:19:56.040Z,18.41
2019-05-18T18:22:24.390Z,18.27
2019-05-18T18:24:52.757Z,18.18
2019-05-18T18:27:25.144Z,18.13
2019-05-18T18:29:50.345Z,17.89
2019-05-18T18:32:18.676Z,17.64
2019-05-18T18:34:47.037Z,17.61
2019-05-18T18:37:15.369Z,17.41
2019-05-18T18:39:43.722Z,17.19
2019-05-18T18:42:12.093Z,17.08
2019-05-18T18:44:40.418Z,16.94
2019-05-18T18:47:08.775Z,16.94
2019-05-18T18:49:38.038Z,16.75
2019-05-18T18:52:06.366Z,16.54
2019-05-18T18:54:34.722Z,16.36
2019-05-18T18:59:38.237Z,15.88
2019-05-18T19:02:06.580Z,15.65
2019-05-18T19:04:34.979Z,15.51
2019-05-18T19:07:03.278Z,15.38
2019-05-18T19:09:35.327Z,15.33
2019-05-18T19:12:03.671Z,15.25
2019-05-18T19:14:32.017Z,15.22
2019-05-18T19:17:01.397Z,15.07
2019-05-18T19:19:30.018Z,14.98
2019-05-18T19:21:58.364Z,14.87
2019-05-18T19:24:26.722Z,14.80
2019-05-18T19:26:55.070Z,14.84
2019-05-18T19:29:23.408Z,14.68
2019-05-18T19:31:57.843Z,14.59
2019-05-18T19:34:26.452Z,14.53
2019-05-18T19:36:54.851Z,14.50
2019-05-18T19:39:23.195Z,14.54
2019-05-18T19:41:51.562Z,14.47
2019-05-18T19:44:19.891Z,14.44
2019-05-18T19:46:48.243Z,14.24
2019-05-18T19:49:16.591Z,14.21
2019-05-18T19:51:44.982Z,14.05
2019-05-18T19:54:13.325Z,13.88
2019-05-18T19:56:43.096Z,13.83
2019-05-18T19:59:10.107Z,13.75
2019-05-18T20:04:14.721Z,13.62
2019-05-18T20:06:43.302Z,13.57
2019-05-18T20:09:13.543Z,13.39
2019-05-18T20:11:41.932Z,13.38
2019-05-18T20:14:10.645Z,13.33
2019-05-18T20:19:13.249Z,13.12
2019-05-18T20:24:15.814Z,13.02
2019-05-18T20:26:44.172Z,12.88
2019-05-18T20:29:12.524Z,12.93
2019-05-18T20:31:41.401Z,12.83
2019-05-18T20:34:09.813Z,12.73
2019-05-18T20:36:38.598Z,12.66
2019-05-18T20:39:08.149Z,12.61
2019-05-18T20:41:36.491Z,12.48
2019-05-18T20:46:43.177Z,12.37
2019-05-18T20:49:11.516Z,12.24
2019-05-18T20:51:40.071Z,12.12
2019-05-18T20:54:08.417Z,12.06
2019-05-18T20:56:36.771Z,11.96
2019-05-18T20:59:05.116Z,11.87
2019-05-18T21:01:33.472Z,11.81
2019-05-18T21:04:01.886Z,11.72
2019-05-18T21:06:30.220Z,11.61
2019-05-18T21:08:58.567Z,11.52
2019-05-18T21:11:26.927Z,11.48
2019-05-18T21:13:57.784Z,11.45
2019-05-18T21:16:24.562Z,11.32
2019-05-18T21:18:52.928Z,11.25
2019-05-18T21:21:25.686Z,11.27
2019-05-18T21:23:51.541Z,11.19
2019-05-18T21:26:19.890Z,11.11
2019-05-18T21:28:59.673Z,11.06
2019-05-18T21:31:24.819Z,11.03
2019-05-18T21:34:01.170Z,11.04
2019-05-18T21:36:30.416Z,10.96
2019-05-18T21:41:32.948Z,10.93
2019-05-18T21:44:01.363Z,10.79
2019-05-18T21:49:04.004Z,10.80
2019-05-18T21:51:34.277Z,10.70
2019-05-18T21:54:02.651Z,10.61
2019-05-18T21:56:31.024Z,10.60
2019-05-18T22:01:34.576Z,10.62
2019-05-18T22:04:02.972Z,10.51
2019-05-18T22:06:31.339Z,10.39
2019-05-18T22:08:59.676Z,10.47
2019-05-18T22:11:28.022Z,10.43
2019-05-18T22:13:56.364Z,10.41
2019-05-18T22:16:25.607Z,10.10
2019-05-18T22:18:53.959Z,10.10
2019-05-18T22:21:22.291Z,9.89
2019-05-18T22:23:50.650Z,9.83
2019-05-18T22:26:18.983Z,9.78
2019-05-18T22:28:47.338Z,9.83
2019-05-18T22:31:15.680Z,9.67
2019-05-18T22:33:52.698Z,9.70
2019-05-18T22:36:23.953Z,9.84
2019-05-18T22:38:52.360Z,9.73
2019-05-18T22:41:20.670Z,9.65
2019-05-18T22:43:49.001Z,9.55
2019-05-18T22:46:17.333Z,9.45
2019-05-18T22:48:45.673Z,9.54
2019-05-18T22:51:14.013Z,9.58
2019-05-18T22:53:42.353Z,9.58
2019-05-18T22:56:10.692Z,9.58
2019-05-18T22:58:39.055Z,9.47
2019-05-18T23:01:07.360Z,9.51
2019-05-18T23:03:35.753Z,9.39
2019-05-18T23:06:04.089Z,9.28
2019-05-18T23:08:32.435Z,9.24
2019-05-18T23:11:00.781Z,9.16
2019-05-18T23:13:29.120Z,8.98
2019-05-18T23:15:57.461Z,8.91
2019-05-18T23:18:28.968Z,8.88
2019-05-18T23:21:00.730Z,8.74
2019-05-18T23:23:29.076Z,8.66
2019-05-18T23:25:57.409Z,8.61
2019-05-18T23:28:26.663Z,8.57
2019-05-18T23:30:55.975Z,8.57
2019-05-18T23:33:30.860Z,8.55
2019-05-18T23:36:02.969Z,8.54
2019-05-18T23:38:34.734Z,8.65
2019-05-18T23:41:03.968Z,8.59
2019-05-18T23:43:35.560Z,8.58
2019-05-18T23:46:03.913Z,8.47
2019-05-18T23:48:34.152Z,8.30
2019-05-18T23:51:02.490Z,8.26
2019-05-18T23:53:37.592Z,8.20
2019-05-18T23:56:20.349Z,8.13
2019-05-18T23:58:51.616Z,8.07
